Time;durP1;ratioP1;P1;durP2;ratioP2;P2;SDS_P1;SDS_P2;PMS_P1;PMS_P2;Temp;Humidity;BMP_temperature;BMP_pressure;BME280_temperature;BME280_humidity;BME280_pressure;Samples;Min_cycle;Max_cycle;Signal;HPM_P1;HPM_P2
2023/08/14 00:02:09;;;;;;;15.32;5.75;;;;;;;;;;6268332;22;20390;-89
2023/08/14 00:05:14;;;;;;;11.98;5.95;;;;;;;;;;6270449;22;20174;-88
2023/08/14 00:08:21;;;;;;;17.35;5.30;;;;;;;;;;6270182;22;20240;-88
2023/08/14 00:11:26;;;;;;;11.57;5.72;;;;;;;;;;6269598;22;20517;-91
2023/08/14 00:14:31;;;;;;;14.27;5.38;;;;;;;;;;6270831;22;20170;-90
2023/08/14 00:17:40;;;;;;;12.20;5.32;;;;;;;;;;6270221;22;20308;-87
2023/08/14 00:20:45;;;;;;;11.68;5.00;;;;;;;;;;6271118;22;20174;-90
2023/08/14 00:23:52;;;;;;;9.48;5.45;;;;;;;;;;6269021;22;20645;-90
2023/08/14 00:26:56;;;;;;;15.05;5.80;;;;;;;;;;6270147;22;20174;-91
2023/08/14 00:30:02;;;;;;;9.10;4.63;;;;;;;;;;6269110;22;20165;-89
2023/08/14 00:33:10;;;;;;;12.10;5.90;;;;;;;;;;6268538;22;20195;-89
2023/08/14 00:36:15;;;;;;;13.45;6.10;;;;;;;;;;6268827;22;20240;-89
2023/08/14 00:39:22;;;;;;;12.77;6.05;;;;;;;;;;6269810;22;20189;-88
2023/08/14 00:42:27;;;;;;;12.88;6.20;;;;;;;;;;6269408;22;20185;-90
2023/08/14 00:45:37;;;;;;;12.20;5.70;;;;;;;;;;6272691;22;20162;-90
2023/08/14 00:48:42;;;;;;;13.63;6.57;;;;;;;;;;6272412;22;20166;-89
2023/08/14 00:51:47;;;;;;;10.80;5.82;;;;;;;;;;6271936;22;20189;-90
2023/08/14 00:54:54;;;;;;;13.25;5.63;;;;;;;;;;6270623;22;20166;-88
2023/08/14 00:58:00;;;;;;;15.05;6.18;;;;;;;;;;6271403;22;20193;-90
2023/08/14 01:01:08;;;;;;;19.35;6.35;;;;;;;;;;6272998;22;20224;-91
2023/08/14 01:04:14;;;;;;;17.02;6.22;;;;;;;;;;6272556;22;20166;-90
2023/08/14 01:07:19;;;;;;;13.48;6.05;;;;;;;;;;6271175;22;20149;-88
2023/08/14 01:10:29;;;;;;;13.15;6.97;;;;;;;;;;6270597;22;20209;-91
2023/08/14 01:13:37;;;;;;;16.30;6.68;;;;;;;;;;6269311;22;20292;-90
2023/08/14 01:16:45;;;;;;;13.90;6.15;;;;;;;;;;6269917;22;20165;-90
2023/08/14 01:19:51;;;;;;;9.77;5.45;;;;;;;;;;6267233;22;20252;-89
2023/08/14 01:23:05;;;;;;;11.05;5.63;;;;;;;;;;6267948;22;20158;-89
2023/08/14 01:26:12;;;;;;;14.48;6.30;;;;;;;;;;6267425;22;20174;-91
2023/08/14 01:29:18;;;;;;;15.20;6.50;;;;;;;;;;6268671;22;20561;-91
2023/08/14 01:32:23;;;;;;;10.88;6.05;;;;;;;;;;6268205;22;20244;-92
2023/08/14 01:35:31;;;;;;;15.52;6.80;;;;;;;;;;6266560;22;20173;-90
2023/08/14 01:38:40;;;;;;;14.93;6.60;;;;;;;;;;6267350;22;20185;-90
2023/08/14 01:41:50;;;;;;;10.60;6.30;;;;;;;;;;6267840;22;20182;-92
2023/08/14 01:44:57;;;;;;;12.93;6.18;;;;;;;;;;6266860;22;20213;-91
2023/08/14 01:48:03;;;;;;;12.90;6.40;;;;;;;;;;6266947;22;20170;-89
2023/08/14 01:51:08;;;;;;;14.93;7.47;;;;;;;;;;6266717;22;20268;-90
2023/08/14 01:54:14;;;;;;;14.23;6.65;;;;;;;;;;6267394;22;20161;-89
2023/08/14 01:57:22;;;;;;;12.82;6.95;;;;;;;;;;6270621;22;20292;-90
2023/08/14 02:00:31;;;;;;;11.65;6.22;;;;;;;;;;6268419;22;20232;-90
2023/08/14 02:03:36;;;;;;;13.15;6.25;;;;;;;;;;6268684;22;20222;-90
2023/08/14 02:06:41;;;;;;;13.57;5.75;;;;;;;;;;6265033;22;20197;-89
2023/08/14 02:09:46;;;;;;;15.85;6.05;;;;;;;;;;6265104;22;20170;-90
2023/08/14 02:12:52;;;;;;;8.90;5.75;;;;;;;;;;6267495;22;20197;-91
2023/08/14 02:15:57;;;;;;;10.20;6.15;;;;;;;;;;6267325;22;20181;-90
2023/08/14 02:19:02;;;;;;;18.83;6.85;;;;;;;;;;6266460;22;20170;-90
2023/08/14 02:22:09;;;;;;;12.07;5.97;;;;;;;;;;6256969;22;20182;-91
2023/08/14 02:25:15;;;;;;;10.80;6.43;;;;;;;;;;6267714;22;20150;-89
2023/08/14 02:28:21;;;;;;;13.20;6.25;;;;;;;;;;6267407;22;20165;-89
2023/08/14 02:31:27;;;;;;;10.80;6.85;;;;;;;;;;6267849;22;20166;-91
2023/08/14 02:34:33;;;;;;;13.05;6.90;;;;;;;;;;6267891;22;20261;-89
2023/08/14 02:37:38;;;;;;;10.63;6.68;;;;;;;;;;6266622;22;20259;-90
2023/08/14 02:40:43;;;;;;;12.45;6.75;;;;;;;;;;6267372;22;20200;-88
2023/08/14 02:43:50;;;;;;;16.10;7.28;;;;;;;;;;6268596;22;20667;-88
2023/08/14 02:46:55;;;;;;;11.07;6.18;;;;;;;;;;6268962;22;20248;-90
2023/08/14 02:50:00;;;;;;;9.90;6.00;;;;;;;;;;6269465;22;20170;-93
2023/08/14 02:53:05;;;;;;;12.52;6.53;;;;;;;;;;6267224;22;20833;-91
2023/08/14 02:56:09;;;;;;;12.38;6.72;;;;;;;;;;6268288;22;20150;-90
2023/08/14 02:59:16;;;;;;;9.57;6.03;;;;;;;;;;6268650;22;20241;-85
2023/08/14 03:02:21;;;;;;;11.52;6.75;;;;;;;;;;6272612;22;20498;-92
2023/08/14 03:05:26;;;;;;;13.00;7.15;;;;;;;;;;6269734;22;20166;-93
2023/08/14 03:08:31;;;;;;;12.40;6.03;;;;;;;;;;6268435;22;20178;-91
2023/08/14 03:11:36;;;;;;;12.88;6.22;;;;;;;;;;6270094;22;20206;-90
2023/08/14 03:14:43;;;;;;;9.63;6.18;;;;;;;;;;6269181;22;20170;-90
2023/08/14 03:17:48;;;;;;;10.90;6.20;;;;;;;;;;6270483;22;20170;-92
2023/08/14 03:20:53;;;;;;;12.82;6.15;;;;;;;;;;6268568;22;20667;-90
2023/08/14 03:23:59;;;;;;;12.25;6.20;;;;;;;;;;6267798;22;20257;-89
2023/08/14 03:27:04;;;;;;;9.90;6.22;;;;;;;;;;6271537;22;20210;-91
2023/08/14 03:30:12;;;;;;;11.68;6.68;;;;;;;;;;6269764;22;20244;-89
2023/08/14 03:33:18;;;;;;;17.25;7.28;;;;;;;;;;6270105;22;20193;-91
2023/08/14 03:36:23;;;;;;;13.15;6.05;;;;;;;;;;6269993;22;20189;-91
2023/08/14 03:39:29;;;;;;;11.05;6.05;;;;;;;;;;6271260;22;20508;-91
2023/08/14 03:42:35;;;;;;;11.65;6.68;;;;;;;;;;6272346;22;20597;-91
2023/08/14 03:45:44;;;;;;;15.13;6.18;;;;;;;;;;6270273;22;20281;-86
2023/08/14 03:48:50;;;;;;;13.65;6.40;;;;;;;;;;6275742;22;20469;-90
2023/08/14 03:51:55;;;;;;;10.15;5.90;;;;;;;;;;6271452;22;20234;-90
2023/08/14 03:55:00;;;;;;;10.60;6.13;;;;;;;;;;6272318;22;20150;-89
2023/08/14 03:58:05;;;;;;;10.30;6.07;;;;;;;;;;6270102;22;20216;-91
2023/08/14 04:01:13;;;;;;;13.85;6.05;;;;;;;;;;6270363;22;20237;-89
2023/08/14 04:04:18;;;;;;;15.68;6.13;;;;;;;;;;6271386;22;20153;-88
2023/08/14 04:07:23;;;;;;;13.35;6.38;;;;;;;;;;6271995;22;20166;-88
2023/08/14 04:10:29;;;;;;;11.65;6.38;;;;;;;;;;6271623;22;20169;-90
2023/08/14 04:13:34;;;;;;;11.35;6.40;;;;;;;;;;6272423;22;20248;-87
2023/08/14 04:16:44;;;;;;;11.35;6.55;;;;;;;;;;6270680;22;20162;-91
2023/08/14 04:19:49;;;;;;;14.70;7.30;;;;;;;;;;6272963;22;20245;-89
2023/08/14 04:22:54;;;;;;;12.15;6.45;;;;;;;;;;6271003;22;20235;-90
2023/08/14 04:25:59;;;;;;;12.82;7.57;;;;;;;;;;6274333;22;20153;-89
2023/08/14 04:29:06;;;;;;;18.10;8.45;;;;;;;;;;6271818;22;20197;-91
2023/08/14 04:32:13;;;;;;;18.02;7.57;;;;;;;;;;6271561;22;20162;-89
2023/08/14 04:35:18;;;;;;;14.25;6.72;;;;;;;;;;6271339;22;20170;-93
2023/08/14 04:38:26;;;;;;;11.15;6.03;;;;;;;;;;6270313;22;20206;-88
2023/08/14 04:41:32;;;;;;;10.65;5.70;;;;;;;;;;6269633;22;20545;-90
2023/08/14 04:44:39;;;;;;;11.63;5.97;;;;;;;;;;6273164;22;20173;-88
2023/08/14 04:47:45;;;;;;;9.95;5.80;;;;;;;;;;6271375;22;20170;-88
2023/08/14 04:50:51;;;;;;;11.63;6.10;;;;;;;;;;6270104;22;20169;-89
2023/08/14 04:53:57;;;;;;;10.57;5.57;;;;;;;;;;6269650;22;20237;-88
2023/08/14 04:57:02;;;;;;;16.42;6.70;;;;;;;;;;6269169;22;20574;-91
2023/08/14 05:00:08;;;;;;;8.88;5.93;;;;;;;;;;6275033;22;20170;-88
2023/08/14 05:03:16;;;;;;;16.73;6.80;;;;;;;;;;6273520;22;20166;-88
2023/08/14 05:06:21;;;;;;;14.45;6.13;;;;;;;;;;6274779;22;20286;-87
2023/08/14 05:09:26;;;;;;;13.93;6.53;;;;;;;;;;6271084;22;20174;-89
2023/08/14 05:12:31;;;;;;;11.00;6.57;;;;;;;;;;6270951;22;20193;-90
2023/08/14 05:15:39;;;;;;;8.32;5.93;;;;;;;;;;6274150;22;20612;-90
2023/08/14 05:18:45;;;;;;;14.52;7.50;;;;;;;;;;6273310;22;20235;-89
2023/08/14 05:21:51;;;;;;;13.88;7.53;;;;;;;;;;6271034;22;20487;-88
2023/08/14 05:24:58;;;;;;;11.82;6.93;;;;;;;;;;6271984;22;20155;-87
2023/08/14 05:28:03;;;;;;;14.05;7.78;;;;;;;;;;6274615;22;20674;-90
2023/08/14 05:31:08;;;;;;;11.57;7.35;;;;;;;;;;6271424;22;20174;-90
2023/08/14 05:34:14;;;;;;;14.57;7.65;;;;;;;;;;6270357;22;20565;-90
2023/08/14 05:37:19;;;;;;;11.80;7.32;;;;;;;;;;6268734;22;20308;-90
2023/08/14 05:40:26;;;;;;;10.02;6.38;;;;;;;;;;6269364;22;20230;-88
2023/08/14 05:43:31;;;;;;;15.77;7.00;;;;;;;;;;6269438;22;20244;-89
2023/08/14 05:46:36;;;;;;;13.35;6.93;;;;;;;;;;6271588;22;20162;-90
2023/08/14 05:49:43;;;;;;;10.93;7.10;;;;;;;;;;6271066;22;20605;-88
2023/08/14 05:52:49;;;;;;;16.23;9.45;;;;;;;;;;6269494;22;20193;-89
2023/08/14 05:55:54;;;;;;;11.25;6.72;;;;;;;;;;6268284;22;20150;-89
2023/08/14 05:58:59;;;;;;;11.82;6.53;;;;;;;;;;6269976;22;20225;-91
2023/08/14 06:02:04;;;;;;;10.57;6.70;;;;;;;;;;6270191;22;20293;-90
2023/08/14 06:05:11;;;;;;;9.38;6.65;;;;;;;;;;6270598;22;20173;-91
2023/08/14 06:08:16;;;;;;;13.65;6.78;;;;;;;;;;6270162;22;20181;-89
2023/08/14 06:11:21;;;;;;;14.20;6.50;;;;;;;;;;6269060;22;20277;-88
2023/08/14 06:14:26;;;;;;;13.10;7.18;;;;;;;;;;6269834;22;20235;-88
2023/08/14 06:17:32;;;;;;;14.95;7.15;;;;;;;;;;6271012;22;20263;-89
2023/08/14 06:20:39;;;;;;;13.07;6.47;;;;;;;;;;6269355;22;20498;-92
2023/08/14 06:23:44;;;;;;;11.57;6.45;;;;;;;;;;6266630;22;20169;-88
2023/08/14 06:26:49;;;;;;;10.93;5.88;;;;;;;;;;6268244;22;20185;-89
2023/08/14 06:29:54;;;;;;;12.25;5.90;;;;;;;;;;6271452;22;20217;-91
2023/08/14 06:33:00;;;;;;;10.27;5.85;;;;;;;;;;6270216;22;20193;-92
2023/08/14 06:36:07;;;;;;;7.95;5.50;;;;;;;;;;6269514;22;20727;-91
2023/08/14 06:39:12;;;;;;;18.45;6.55;;;;;;;;;;6270083;22;20165;-90
2023/08/14 06:42:17;;;;;;;30.05;10.50;;;;;;;;;;6271665;22;20487;-86
2023/08/14 06:45:22;;;;;;;11.65;6.38;;;;;;;;;;6274133;22;20149;-89
2023/08/14 06:48:28;;;;;;;26.70;8.82;;;;;;;;;;6273005;22;20162;-90
2023/08/14 06:51:35;;;;;;;19.20;6.78;;;;;;;;;;6274222;22;20173;-90
2023/08/14 06:54:40;;;;;;;12.25;5.70;;;;;;;;;;6272079;22;20213;-88
2023/08/14 06:57:46;;;;;;;11.23;5.30;;;;;;;;;;6272118;22;20157;-88
2023/08/14 07:00:52;;;;;;;18.92;7.32;;;;;;;;;;6271313;22;20234;-90
2023/08/14 07:03:57;;;;;;;12.50;6.05;;;;;;;;;;6272470;22;20170;-91
2023/08/14 07:07:04;;;;;;;10.65;4.55;;;;;;;;;;6272245;22;20622;-90
2023/08/14 07:10:09;;;;;;;7.47;4.15;;;;;;;;;;6274680;22;20173;-91
2023/08/14 07:13:17;;;;;;;15.23;4.32;;;;;;;;;;6276076;22;20185;-88
2023/08/14 07:16:22;;;;;;;11.07;4.22;;;;;;;;;;6276678;22;20671;-92
2023/08/14 07:19:27;;;;;;;6.95;4.00;;;;;;;;;;6274279;22;20166;-91
2023/08/14 07:22:33;;;;;;;6.30;4.15;;;;;;;;;;6273883;22;20256;-89
2023/08/14 07:25:39;;;;;;;9.30;4.45;;;;;;;;;;6272428;22;20581;-89
2023/08/14 07:28:47;;;;;;;7.95;4.38;;;;;;;;;;6274971;22;20211;-91
2023/08/14 07:31:53;;;;;;;9.90;3.88;;;;;;;;;;6273982;22;20170;-87
2023/08/14 07:34:58;;;;;;;7.25;3.58;;;;;;;;;;6277555;22;20247;-90
2023/08/14 07:38:05;;;;;;;6.93;3.63;;;;;;;;;;6274817;22;20172;-89
2023/08/14 07:41:10;;;;;;;6.68;3.30;;;;;;;;;;6277044;22;20169;-90
2023/08/14 07:44:17;;;;;;;9.60;3.60;;;;;;;;;;6275623;22;20189;-91
2023/08/14 07:47:22;;;;;;;7.45;3.70;;;;;;;;;;6276417;22;20168;-87
2023/08/14 07:50:27;;;;;;;5.63;3.05;;;;;;;;;;6274515;22;20169;-91
2023/08/14 07:53:33;;;;;;;6.05;3.22;;;;;;;;;;6272119;22;20205;-90
2023/08/14 07:56:38;;;;;;;8.95;3.58;;;;;;;;;;6270126;22;20157;-90
2023/08/14 07:59:44;;;;;;;9.43;3.28;;;;;;;;;;6272971;22;20609;-89
2023/08/14 08:02:51;;;;;;;5.78;2.97;;;;;;;;;;6270524;22;20166;-91
2023/08/14 08:05:56;;;;;;;8.02;3.40;;;;;;;;;;6273354;22;20173;-89
2023/08/14 08:09:03;;;;;;;7.95;3.10;;;;;;;;;;6271242;22;20177;-88
2023/08/14 08:12:08;;;;;;;6.78;3.13;;;;;;;;;;6272906;22;20619;-90
2023/08/14 08:15:17;;;;;;;4.90;3.17;;;;;;;;;;6273700;22;20525;-89
2023/08/14 08:18:22;;;;;;;5.68;3.60;;;;;;;;;;6276958;22;20165;-90
2023/08/14 08:21:28;;;;;;;6.20;2.95;;;;;;;;;;6275075;22;20156;-89
2023/08/14 08:24:35;;;;;;;6.75;3.50;;;;;;;;;;6274793;22;20164;-89
2023/08/14 08:27:40;;;;;;;10.02;3.30;;;;;;;;;;6275530;22;20160;-89
2023/08/14 08:30:49;;;;;;;5.20;3.08;;;;;;;;;;6276891;22;20165;-91
2023/08/14 08:33:55;;;;;;;6.50;3.17;;;;;;;;;;6275826;22;20193;-90
2023/08/14 08:37:00;;;;;;;7.28;3.30;;;;;;;;;;6275986;22;20247;-88
2023/08/14 08:40:08;;;;;;;7.70;2.97;;;;;;;;;;6277351;22;20152;-90
2023/08/14 08:43:15;;;;;;;6.50;3.13;;;;;;;;;;6276147;22;20165;-91
2023/08/14 08:46:22;;;;;;;4.60;3.20;;;;;;;;;;6273400;22;20165;-90
2023/08/14 08:49:28;;;;;;;6.03;3.72;;;;;;;;;;6272737;22;20240;-90
2023/08/14 08:52:34;;;;;;;6.55;2.85;;;;;;;;;;6272566;22;20607;-93
2023/08/14 08:55:49;;;;;;;7.30;3.53;;;;;;;;;;6274590;22;20152;-90
2023/08/14 08:58:58;;;;;;;6.32;3.25;;;;;;;;;;6275551;22;20173;-91
2023/08/14 09:02:03;;;;;;;4.50;2.95;;;;;;;;;;6273552;22;20165;-90
2023/08/14 09:05:08;;;;;;;5.63;3.00;;;;;;;;;;6273829;22;20295;-90
2023/08/14 09:08:14;;;;;;;6.63;3.40;;;;;;;;;;6271543;22;20149;-89
2023/08/14 09:11:22;;;;;;;5.22;3.45;;;;;;;;;;6273919;22;20164;-89
2023/08/14 09:14:27;;;;;;;6.53;2.75;;;;;;;;;;6273518;22;20227;-90
2023/08/14 09:17:33;;;;;;;8.68;3.30;;;;;;;;;;6277112;22;20161;-93
2023/08/14 09:20:38;;;;;;;4.65;2.88;;;;;;;;;;6274105;22;20617;-91
2023/08/14 09:23:52;;;;;;;5.35;3.03;;;;;;;;;;6272896;22;20164;-90
2023/08/14 09:27:03;;;;;;;9.02;3.45;;;;;;;;;;6279722;22;20166;-90
2023/08/14 09:30:09;;;;;;;8.13;3.22;;;;;;;;;;6275654;22;20172;-89
2023/08/14 09:33:15;;;;;;;4.60;3.15;;;;;;;;;;6271934;22;20177;-90
2023/08/14 09:36:20;;;;;;;7.72;3.53;;;;;;;;;;6270525;22;20192;-89
2023/08/14 09:39:25;;;;;;;6.80;3.40;;;;;;;;;;6270544;22;20250;-92
2023/08/14 09:42:33;;;;;;;8.38;3.28;;;;;;;;;;6269543;22;20160;-89
2023/08/14 09:45:38;;;;;;;5.85;3.03;;;;;;;;;;6271025;22;20176;-89
2023/08/14 09:48:44;;;;;;;6.47;3.47;;;;;;;;;;6271932;22;20165;-91
2023/08/14 09:51:56;;;;;;;4.60;3.25;;;;;;;;;;6270142;22;20169;-91
2023/08/14 09:55:03;;;;;;;6.60;3.35;;;;;;;;;;6270294;22;20193;-92
2023/08/14 09:58:10;;;;;;;6.32;3.30;;;;;;;;;;6272889;22;20230;-88
2023/08/14 10:01:25;;;;;;;5.90;3.03;;;;;;;;;;6247268;22;20201;-89
2023/08/14 10:04:33;;;;;;;7.80;3.55;;;;;;;;;;6246612;22;20222;-91
2023/08/14 10:07:39;;;;;;;6.13;3.42;;;;;;;;;;6238785;23;20222;-88
2023/08/14 10:10:44;;;;;;;5.13;3.08;;;;;;;;;;6241485;22;20145;-90
2023/08/14 10:13:54;;;;;;;5.88;3.50;;;;;;;;;;6242508;22;20204;-89
2023/08/14 10:17:01;;;;;;;9.75;3.25;;;;;;;;;;6242974;22;20158;-91
2023/08/14 10:20:06;;;;;;;8.82;3.72;;;;;;;;;;6242989;22;20166;-90
2023/08/14 10:23:12;;;;;;;10.25;4.72;;;;;;;;;;6259916;22;20591;-89
2023/08/14 10:26:18;;;;;;;5.25;3.30;;;;;;;;;;6243556;22;20158;-91
2023/08/14 10:29:25;;;;;;;4.75;3.35;;;;;;;;;;6242979;22;20324;-89
2023/08/14 10:32:32;;;;;;;6.47;3.22;;;;;;;;;;6245398;22;20162;-90
2023/08/14 10:35:50;;;;;;;5.93;3.38;;;;;;;;;;6244039;22;20196;-90
2023/08/14 10:38:56;;;;;;;5.72;3.40;;;;;;;;;;6242526;23;20202;-90
2023/08/14 10:42:01;;;;;;;6.15;3.42;;;;;;;;;;6242353;22;20287;-91
2023/08/14 10:45:11;;;;;;;8.50;3.53;;;;;;;;;;6242399;22;20259;-89
2023/08/14 10:48:19;;;;;;;5.30;3.33;;;;;;;;;;6242304;22;20157;-91
2023/08/14 10:51:24;;;;;;;6.32;4.07;;;;;;;;;;6239702;22;20165;-91
2023/08/14 10:54:37;;;;;;;6.60;3.28;;;;;;;;;;6237731;23;20273;-91
2023/08/14 10:57:42;;;;;;;5.78;3.70;;;;;;;;;;6239662;22;20162;-91
2023/08/14 11:00:53;;;;;;;8.52;3.25;;;;;;;;;;6240140;22;20490;-90
2023/08/14 11:03:59;;;;;;;10.40;4.15;;;;;;;;;;6258516;22;20210;-91
2023/08/14 11:07:11;;;;;;;5.07;3.53;;;;;;;;;;6258326;22;20161;-88
2023/08/14 11:10:16;;;;;;;10.23;3.70;;;;;;;;;;6256736;22;20165;-89
2023/08/14 11:13:22;;;;;;;6.38;3.63;;;;;;;;;;6243057;22;20197;-90
2023/08/14 11:16:29;;;;;;;7.75;3.85;;;;;;;;;;6240379;22;20174;-89
2023/08/14 11:19:35;;;;;;;7.13;3.70;;;;;;;;;;6243103;22;20166;-90
2023/08/14 11:22:45;;;;;;;11.30;4.20;;;;;;;;;;6242826;22;20673;-90
2023/08/14 11:25:50;;;;;;;6.47;3.75;;;;;;;;;;6258914;22;20233;-91
2023/08/14 11:28:55;;;;;;;6.15;3.80;;;;;;;;;;6243488;22;20489;-93
2023/08/14 11:32:01;;;;;;;8.77;3.72;;;;;;;;;;6242879;22;20618;-90
2023/08/14 11:35:08;;;;;;;7.80;4.35;;;;;;;;;;6241935;23;20212;-90
2023/08/14 11:38:13;;;;;;;9.82;3.70;;;;;;;;;;6242447;22;20204;-91
2023/08/14 11:41:18;;;;;;;7.53;3.80;;;;;;;;;;6241158;22;20338;-92
2023/08/14 11:44:23;;;;;;;6.65;3.83;;;;;;;;;;6242577;23;20188;-89
2023/08/14 11:47:31;;;;;;;8.02;4.20;;;;;;;;;;6243087;22;20166;-88
2023/08/14 11:50:36;;;;;;;9.07;4.25;;;;;;;;;;6241681;23;20158;-90
2023/08/14 11:53:42;;;;;;;9.23;4.32;;;;;;;;;;6243433;22;20149;-90
2023/08/14 11:56:48;;;;;;;5.82;3.95;;;;;;;;;;6243111;22;20162;-90
2023/08/14 11:59:54;;;;;;;5.60;4.10;;;;;;;;;;6244191;22;20150;-91
2023/08/14 12:03:01;;;;;;;6.90;4.20;;;;;;;;;;6244244;23;20161;-91
2023/08/14 12:06:06;;;;;;;8.73;4.10;;;;;;;;;;6241807;23;20166;-91
2023/08/14 12:09:12;;;;;;;7.05;3.80;;;;;;;;;;6242462;22;20154;-89
2023/08/14 12:12:18;;;;;;;7.80;4.10;;;;;;;;;;6245269;22;20165;-90
2023/08/14 12:15:23;;;;;;;6.00;4.05;;;;;;;;;;6242393;22;20713;-90
2023/08/14 12:18:31;;;;;;;7.78;4.40;;;;;;;;;;6243505;23;20178;-92
2023/08/14 12:21:36;;;;;;;10.50;4.15;;;;;;;;;;6242989;23;20177;-91
2023/08/14 12:24:42;;;;;;;6.03;3.72;;;;;;;;;;6245079;22;20173;-90
2023/08/14 12:27:48;;;;;;;9.85;4.30;;;;;;;;;;6244411;23;20170;-92
2023/08/14 12:30:54;;;;;;;10.60;4.18;;;;;;;;;;6244610;22;20166;-90
2023/08/14 12:34:01;;;;;;;8.80;3.83;;;;;;;;;;6245204;22;20170;-90
2023/08/14 12:37:07;;;;;;;6.13;4.20;;;;;;;;;;6244861;23;20193;-90
2023/08/14 12:40:14;;;;;;;8.85;4.05;;;;;;;;;;6244422;22;20542;-89
2023/08/14 12:43:20;;;;;;;4.85;3.75;;;;;;;;;;6262624;22;20213;-93
2023/08/14 12:46:25;;;;;;;7.28;4.28;;;;;;;;;;6244476;22;20166;-92
2023/08/14 12:49:33;;;;;;;7.07;4.20;;;;;;;;;;6262299;22;20218;-92
2023/08/14 12:52:38;;;;;;;7.50;3.85;;;;;;;;;;6264103;22;20174;-90
2023/08/14 12:55:45;;;;;;;5.80;3.70;;;;;;;;;;6245539;22;20177;-90
2023/08/14 12:58:51;;;;;;;8.15;4.07;;;;;;;;;;6245200;22;20157;-87
2023/08/14 13:01:56;;;;;;;6.15;3.90;;;;;;;;;;6246550;22;20169;-90
2023/08/14 13:05:04;;;;;;;5.70;3.58;;;;;;;;;;6244783;22;20154;-91
2023/08/14 13:08:09;;;;;;;6.03;3.90;;;;;;;;;;6248017;22;20492;-89
2023/08/14 13:11:14;;;;;;;7.22;3.72;;;;;;;;;;6246236;22;20208;-89
2023/08/14 13:14:19;;;;;;;8.10;3.58;;;;;;;;;;6243874;22;20169;-90
2023/08/14 13:17:25;;;;;;;6.82;3.72;;;;;;;;;;6243658;22;20258;-92
2023/08/14 13:20:31;;;;;;;6.82;3.17;;;;;;;;;;6249149;22;20154;-90
2023/08/14 13:23:37;;;;;;;7.22;3.42;;;;;;;;;;6245120;22;20166;-89
2023/08/14 13:26:43;;;;;;;7.03;3.50;;;;;;;;;;6245795;22;20166;-90
2023/08/14 13:29:49;;;;;;;5.38;3.25;;;;;;;;;;6243289;22;20169;-91
2023/08/14 13:32:55;;;;;;;8.13;3.60;;;;;;;;;;6244089;22;20185;-91
2023/08/14 13:36:02;;;;;;;6.78;3.38;;;;;;;;;;6260429;22;20269;-90
2023/08/14 13:39:09;;;;;;;4.80;3.08;;;;;;;;;;6242931;22;20672;-91
2023/08/14 13:42:14;;;;;;;8.75;3.50;;;;;;;;;;6259656;22;20205;-90
2023/08/14 13:45:19;;;;;;;8.10;3.40;;;;;;;;;;6241105;22;20166;-92
2023/08/14 13:48:24;;;;;;;8.43;3.60;;;;;;;;;;6242221;23;20234;-90
2023/08/14 13:51:32;;;;;;;6.03;3.13;;;;;;;;;;6242747;22;20166;-89
2023/08/14 13:54:37;;;;;;;8.65;3.42;;;;;;;;;;6241406;22;20260;-90
2023/08/14 13:57:42;;;;;;;7.70;3.40;;;;;;;;;;6239978;23;20165;-92
2023/08/14 14:00:47;;;;;;;4.45;2.90;;;;;;;;;;6239619;22;20189;-90
2023/08/14 14:03:52;;;;;;;5.65;3.05;;;;;;;;;;6241770;22;20201;-90
2023/08/14 14:06:59;;;;;;;5.30;3.42;;;;;;;;;;6239920;22;20165;-88
2023/08/14 14:10:04;;;;;;;4.38;3.30;;;;;;;;;;6240930;22;20169;-91
2023/08/14 14:13:09;;;;;;;7.63;3.47;;;;;;;;;;6241654;22;20170;-91
2023/08/14 14:16:14;;;;;;;5.70;3.25;;;;;;;;;;6241267;22;20194;-91
2023/08/14 14:19:20;;;;;;;6.05;3.25;;;;;;;;;;6240346;22;20487;-89
2023/08/14 14:22:27;;;;;;;7.18;3.38;;;;;;;;;;6238530;23;20166;-88
2023/08/14 14:25:32;;;;;;;6.03;3.50;;;;;;;;;;6241001;22;20161;-92
2023/08/14 14:28:37;;;;;;;4.80;2.78;;;;;;;;;;6238160;23;20307;-89
2023/08/14 14:31:42;;;;;;;6.18;3.13;;;;;;;;;;6239749;22;20149;-88
2023/08/14 14:34:47;;;;;;;10.30;3.30;;;;;;;;;;6238667;22;20196;-90
2023/08/14 14:37:54;;;;;;;6.18;3.00;;;;;;;;;;6240986;23;20245;-88
2023/08/14 14:41:01;;;;;;;4.45;3.15;;;;;;;;;;6241383;22;20165;-90
2023/08/14 14:44:06;;;;;;;7.18;3.08;;;;;;;;;;6242033;22;20677;-90
2023/08/14 14:47:12;;;;;;;4.70;3.20;;;;;;;;;;6243209;22;20189;-90
2023/08/14 14:50:17;;;;;;;8.85;3.40;;;;;;;;;;6241891;23;20178;-90
2023/08/14 14:53:24;;;;;;;9.80;3.47;;;;;;;;;;6241287;22;20154;-88
2023/08/14 14:56:30;;;;;;;7.28;3.45;;;;;;;;;;6240164;22;20193;-90
2023/08/14 14:59:35;;;;;;;6.40;3.28;;;;;;;;;;6240462;23;20169;-92
2023/08/14 15:02:40;;;;;;;6.18;3.20;;;;;;;;;;6259353;22;20193;-89
2023/08/14 15:05:49;;;;;;;4.35;3.10;;;;;;;;;;6242276;23;20452;-91
2023/08/14 15:08:56;;;;;;;9.68;3.15;;;;;;;;;;6241856;23;20180;-90
2023/08/14 15:12:01;;;;;;;6.28;3.38;;;;;;;;;;6241797;22;20166;-88
2023/08/14 15:15:08;;;;;;;5.72;2.97;;;;;;;;;;6238169;23;20316;-88
2023/08/14 15:18:13;;;;;;;5.88;3.08;;;;;;;;;;6259211;23;20216;-90
2023/08/14 15:21:19;;;;;;;7.20;3.25;;;;;;;;;;6245220;22;20166;-89
2023/08/14 15:24:26;;;;;;;7.53;3.55;;;;;;;;;;6238534;23;20166;-90
2023/08/14 15:27:31;;;;;;;6.80;3.17;;;;;;;;;;6238745;23;20600;-91
2023/08/14 15:30:36;;;;;;;5.32;3.20;;;;;;;;;;6239448;22;20174;-91
2023/08/14 15:33:42;;;;;;;5.22;3.10;;;;;;;;;;6242051;23;20150;-89
2023/08/14 15:36:47;;;;;;;6.53;3.13;;;;;;;;;;6242228;22;20209;-90
2023/08/14 15:39:53;;;;;;;7.10;3.08;;;;;;;;;;6239591;23;20641;-91
2023/08/14 15:42:59;;;;;;;5.65;3.10;;;;;;;;;;6242455;22;20153;-90
2023/08/14 15:46:04;;;;;;;4.78;3.00;;;;;;;;;;6241979;22;20154;-89
2023/08/14 15:52:39;;;;;;;4.85;2.85;;;;;;;;;;6213935;23;20206;-88
2023/08/14 15:55:45;;;;;;;6.65;2.92;;;;;;;;;;6215168;23;20198;-87
2023/08/14 15:58:51;;;;;;;5.05;3.22;;;;;;;;;;6216263;22;20227;-90
2023/08/14 16:01:56;;;;;;;7.22;3.30;;;;;;;;;;6216496;22;20174;-87
2023/08/14 16:05:02;;;;;;;5.90;3.72;;;;;;;;;;6216818;23;20238;-90
2023/08/14 16:08:08;;;;;;;6.78;3.20;;;;;;;;;;6213788;23;20170;-90
2023/08/14 16:11:14;;;;;;;7.00;4.00;;;;;;;;;;6212714;23;20166;-88
2023/08/14 16:14:19;;;;;;;5.05;3.63;;;;;;;;;;6213357;22;20174;-89
2023/08/14 16:17:24;;;;;;;8.02;3.40;;;;;;;;;;6213054;22;20194;-88
2023/08/14 16:20:29;;;;;;;8.05;3.50;;;;;;;;;;6212377;23;20256;-91
2023/08/14 16:23:35;;;;;;;6.63;3.45;;;;;;;;;;6214161;23;20169;-90
2023/08/14 16:26:42;;;;;;;5.53;3.20;;;;;;;;;;6212918;23;20169;-88
2023/08/14 16:29:47;;;;;;;11.55;3.40;;;;;;;;;;6231784;22;20688;-91
2023/08/14 16:32:53;;;;;;;6.78;3.50;;;;;;;;;;6212862;22;20209;-89
2023/08/14 16:35:58;;;;;;;7.70;3.22;;;;;;;;;;6213244;22;20237;-89
2023/08/14 16:39:03;;;;;;;8.65;3.53;;;;;;;;;;6212743;23;20290;-88
2023/08/14 16:42:09;;;;;;;6.72;3.30;;;;;;;;;;6211910;22;20179;-89
2023/08/14 16:45:15;;;;;;;7.63;4.40;;;;;;;;;;6228521;23;20601;-90
2023/08/14 16:48:20;;;;;;;4.30;3.25;;;;;;;;;;6211137;22;20167;-88
2023/08/14 16:51:25;;;;;;;8.25;3.42;;;;;;;;;;6213095;22;20186;-89
2023/08/14 16:54:31;;;;;;;11.48;3.75;;;;;;;;;;6211161;23;20217;-88
2023/08/14 16:57:38;;;;;;;9.20;3.38;;;;;;;;;;6212620;23;20245;-90
2023/08/14 17:00:44;;;;;;;6.65;3.22;;;;;;;;;;6211539;23;20162;-91
2023/08/14 17:03:49;;;;;;;7.22;3.15;;;;;;;;;;6210050;22;20295;-91
2023/08/14 17:06:54;;;;;;;8.63;3.17;;;;;;;;;;6212066;22;20166;-92
2023/08/14 17:09:59;;;;;;;6.07;3.53;;;;;;;;;;6227132;22;20167;-89
2023/08/14 17:13:06;;;;;;;8.75;4.18;;;;;;;;;;6211587;23;20170;-89
2023/08/14 17:16:11;;;;;;;6.97;3.88;;;;;;;;;;6209460;23;20183;-90
2023/08/14 17:19:17;;;;;;;7.43;3.70;;;;;;;;;;6209995;22;20166;-90
2023/08/14 17:22:22;;;;;;;4.95;3.50;;;;;;;;;;6211056;23;20203;-90
2023/08/14 17:25:27;;;;;;;8.65;3.40;;;;;;;;;;6210132;22;20458;-89
2023/08/14 17:28:33;;;;;;;10.48;4.03;;;;;;;;;;6210941;23;20661;-91
2023/08/14 17:31:38;;;;;;;5.47;3.65;;;;;;;;;;6210326;23;20163;-90
2023/08/14 17:34:43;;;;;;;8.10;4.63;;;;;;;;;;6209678;23;20167;-90
2023/08/14 17:37:49;;;;;;;9.02;4.07;;;;;;;;;;6210604;22;20187;-89
2023/08/14 17:40:54;;;;;;;9.70;3.80;;;;;;;;;;6210300;22;20187;-89
2023/08/14 17:44:00;;;;;;;10.68;4.10;;;;;;;;;;6209143;23;20217;-89
2023/08/14 17:47:06;;;;;;;11.07;4.25;;;;;;;;;;6226157;23;20237;-89
2023/08/14 17:50:11;;;;;;;14.32;5.03;;;;;;;;;;6206717;23;20233;-89
2023/08/14 17:53:17;;;;;;;9.20;4.72;;;;;;;;;;6209363;23;20155;-88
2023/08/14 17:56:22;;;;;;;11.40;4.60;;;;;;;;;;6208691;23;20214;-89
2023/08/14 17:59:28;;;;;;;8.77;4.30;;;;;;;;;;6227183;23;20178;-88
2023/08/14 18:02:34;;;;;;;10.50;5.20;;;;;;;;;;6210377;23;20183;-90
2023/08/14 18:05:40;;;;;;;10.63;5.03;;;;;;;;;;6192052;23;20214;-89
2023/08/14 18:08:45;;;;;;;16.08;6.07;;;;;;;;;;6210142;23;20154;-89
2023/08/14 18:11:50;;;;;;;8.88;4.55;;;;;;;;;;6214037;23;20175;-90
2023/08/14 18:14:57;;;;;;;6.95;3.83;;;;;;;;;;6212444;23;20171;-88
2023/08/14 18:18:03;;;;;;;10.82;4.55;;;;;;;;;;6210087;23;20206;-89
2023/08/14 18:21:08;;;;;;;12.60;6.10;;;;;;;;;;6213262;23;20188;-89
2023/08/14 18:24:14;;;;;;;10.90;5.72;;;;;;;;;;6210847;23;20171;-89
2023/08/14 18:27:21;;;;;;;14.63;5.22;;;;;;;;;;6216177;23;20171;-91
2023/08/14 18:30:31;;;;;;;9.52;5.82;;;;;;;;;;6215380;23;20167;-90
2023/08/14 18:33:39;;;;;;;8.20;5.25;;;;;;;;;;6214469;23;20266;-89